sensor_id;sensor_type;location;lat;lon;timestamp;temperature;humidity
3736;DHT22;1883;48.202;16.310;2023-02-11T01:52:15;0.70;66.70
3736;DHT22;1883;48.202;16.310;2023-02-11T01:54:47;0.60;66.60
3736;DHT22;1883;48.202;16.310;2023-02-11T01:57:34;0.60;66.60
3736;DHT22;1883;48.202;16.310;2023-02-11T02:00:09;0.60;66.60
3736;DHT22;1883;48.202;16.310;2023-02-11T02:02:41;0.70;66.50
3736;DHT22;1883;48.202;16.310;2023-02-11T02:05:19;0.70;66.50
3736;DHT22;1883;48.202;16.310;2023-02-11T02:07:55;0.60;66.50
3736;DHT22;1883;48.202;16.310;2023-02-11T02:10:26;0.60;66.50
3736;DHT22;1883;48.202;16.310;2023-02-11T02:12:54;0.60;66.40
3736;DHT22;1883;48.202;16.310;2023-02-11T02:15:27;0.60;66.40
3736;DHT22;1883;48.202;16.310;2023-02-11T02:18:06;0.50;66.40
3736;DHT22;1883;48.202;16.310;2023-02-11T02:20:53;0.50;66.30
3736;DHT22;1883;48.202;16.310;2023-02-11T02:23:38;0.50;66.20
3736;DHT22;1883;48.202;16.310;2023-02-11T02:26:37;0.50;66.20
3736;DHT22;1883;48.202;16.310;2023-02-11T02:29:36;0.40;66.10
3736;DHT22;1883;48.202;16.310;2023-02-11T02:35:36;0.40;66.00
3736;DHT22;1883;48.202;16.310;2023-02-11T02:38:10;0.40;66.00
3736;DHT22;1883;48.202;16.310;2023-02-11T02:40:42;0.40;66.00
3736;DHT22;1883;48.202;16.310;2023-02-11T02:43:11;0.40;66.00
3736;DHT22;1883;48.202;16.310;2023-02-11T02:45:39;0.40;65.90
3736;DHT22;1883;48.202;16.310;2023-02-11T02:48:06;0.40;65.80
3736;DHT22;1883;48.202;16.310;2023-02-11T02:50:35;0.40;65.70
3736;DHT22;1883;48.202;16.310;2023-02-11T02:53:13;0.40;65.80
3736;DHT22;1883;48.202;16.310;2023-02-11T02:55:53;0.40;65.70
3736;DHT22;1883;48.202;16.310;2023-02-11T02:58:43;0.50;65.70
3736;DHT22;1883;48.202;16.310;2023-02-11T03:01:21;0.50;65.70
3736;DHT22;1883;48.202;16.310;2023-02-11T03:03:58;0.60;65.80
3736;DHT22;1883;48.202;16.310;2023-02-11T03:06:31;0.60;65.70
3736;DHT22;1883;48.202;16.310;2023-02-11T03:09:03;0.80;65.80
3736;DHT22;1883;48.202;16.310;2023-02-11T03:11:33;0.90;65.90
3736;DHT22;1883;48.202;16.310;2023-02-11T03:14:04;0.90;65.90
3736;DHT22;1883;48.202;16.310;2023-02-11T03:19:12;1.10;66.00
3736;DHT22;1883;48.202;16.310;2023-02-11T03:21:42;1.10;66.10
3736;DHT22;1883;48.202;16.310;2023-02-11T03:24:13;1.10;66.10
3736;DHT22;1883;48.202;16.310;2023-02-11T03:26:45;1.20;66.10
3736;DHT22;1883;48.202;16.310;2023-02-11T03:29:17;1.20;66.10
3736;DHT22;1883;48.202;16.310;2023-02-11T03:31:54;1.20;66.10
3736;DHT22;1883;48.202;16.310;2023-02-11T03:34:28;1.30;66.10
3736;DHT22;1883;48.202;16.310;2023-02-11T03:37:00;1.30;66.20
3736;DHT22;1883;48.202;16.310;2023-02-11T04:05:31;1.40;66.30
3736;DHT22;1883;48.202;16.310;2023-02-11T04:07:59;1.40;66.30
3736;DHT22;1883;48.202;16.310;2023-02-11T04:10:25;1.40;66.30
3736;DHT22;1883;48.202;16.310;2023-02-11T04:12:53;1.40;66.20
3736;DHT22;1883;48.202;16.310;2023-02-11T04:15:20;1.40;66.20
3736;DHT22;1883;48.202;16.310;2023-02-11T04:17:47;1.50;66.20
3736;DHT22;1883;48.202;16.310;2023-02-11T04:20:14;1.50;66.30
3736;DHT22;1883;48.202;16.310;2023-02-11T04:22:43;1.50;66.30
3736;DHT22;1883;48.202;16.310;2023-02-11T04:25:10;1.60;66.30
3736;DHT22;1883;48.202;16.310;2023-02-11T04:27:37;1.60;66.30
3736;DHT22;1883;48.202;16.310;2023-02-11T04:30:05;1.60;66.30
3736;DHT22;1883;48.202;16.310;2023-02-11T04:32:33;1.60;66.30
3736;DHT22;1883;48.202;16.310;2023-02-11T04:42:47;1.50;66.30
3736;DHT22;1883;48.202;16.310;2023-02-11T04:45:14;1.50;66.30
3736;DHT22;1883;48.202;16.310;2023-02-11T04:47:41;1.50;66.30
3736;DHT22;1883;48.202;16.310;2023-02-11T04:50:09;1.60;66.30
3736;DHT22;1883;48.202;16.310;2023-02-11T04:52:36;1.60;66.30
3736;DHT22;1883;48.202;16.310;2023-02-11T04:55:03;1.60;66.30
3736;DHT22;1883;48.202;16.310;2023-02-11T04:57:30;1.70;66.40
3736;DHT22;1883;48.202;16.310;2023-02-11T04:59:59;1.70;66.40
